Time;durP1;ratioP1;P1;durP2;ratioP2;P2;SDS_P1;SDS_P2;PMS_P1;PMS_P2;Temp;Humidity;BMP_temperature;BMP_pressure;BME280_temperature;BME280_humidity;BME280_pressure;Samples;Min_cycle;Max_cycle;Signal;HPM_P1;HPM_P2
2023/12/24 00:01:30;;;;;;;16.20;4.57;;;;;;;1.12;63.67;98874.97;124915;1099;104176;-79
2023/12/24 00:04:05;;;;;;;11.07;4.07;;;;;;;1.08;63.82;98878.24;124885;1099;102102;-78
2023/12/24 00:06:37;;;;;;;13.17;4.50;;;;;;;1.04;63.70;98892.72;125603;1099;104169;-78
2023/12/24 00:09:08;;;;;;;12.97;4.60;;;;;;;1.02;64.13;98894.33;125557;1099;104193;-79
2023/12/24 00:11:39;;;;;;;7.73;3.67;;;;;;;1.00;63.68;98901.13;125631;1098;101987;-78
2023/12/24 00:14:11;;;;;;;9.50;3.97;;;;;;;1.01;63.93;98900.33;125412;1099;104166;-78
2023/12/24 00:16:43;;;;;;;11.70;4.47;;;;;;;1.06;63.69;98910.84;125575;1099;101925;-78
2023/12/24 00:19:14;;;;;;;11.40;4.57;;;;;;;1.10;63.79;98912.78;125558;1099;104204;-78
2023/12/24 00:21:45;;;;;;;12.03;4.30;;;;;;;1.12;63.90;98921.47;125197;1099;104201;-77
2023/12/24 00:24:17;;;;;;;12.87;4.23;;;;;;;1.11;64.30;98917.14;125686;1099;102081;-78
2023/12/24 00:26:48;;;;;;;14.97;4.73;;;;;;;1.11;63.86;98918.81;125608;1099;104098;-77
2023/12/24 00:29:19;;;;;;;13.27;4.60;;;;;;;1.10;63.61;98923.11;125768;1099;104194;-78
2023/12/24 00:31:50;;;;;;;12.60;4.40;;;;;;;1.08;63.88;98930.78;125601;1099;104220;-77
2023/12/24 00:34:22;;;;;;;11.63;4.37;;;;;;;1.08;63.82;98930.78;125673;1099;101820;-77
2023/12/24 00:36:53;;;;;;;11.77;4.97;;;;;;;1.08;63.84;98940.25;125643;1098;104386;-77
2023/12/24 00:39:24;;;;;;;10.30;4.20;;;;;;;1.10;63.72;98942.91;125198;1099;104146;-77
2023/12/24 00:41:55;;;;;;;9.80;4.00;;;;;;;1.12;63.80;98957.64;125686;1099;101798;-77
2023/12/24 00:44:27;;;;;;;9.90;4.00;;;;;;;1.14;63.78;98955.13;125587;1099;104211;-78
2023/12/24 00:46:58;;;;;;;9.27;3.90;;;;;;;1.16;63.69;98956.12;125583;1099;104217;-77
2023/12/24 00:49:30;;;;;;;11.43;3.80;;;;;;;1.15;63.75;98952.62;125475;1099;117864;-78
2023/12/24 00:52:01;;;;;;;9.47;4.07;;;;;;;1.15;63.72;98954.34;125422;1099;101827;-77
2023/12/24 00:54:32;;;;;;;11.23;3.77;;;;;;;1.16;63.71;98949.23;125089;1099;104226;-77
2023/12/24 00:57:04;;;;;;;8.40;3.97;;;;;;;1.19;63.75;98954.55;125595;1099;104268;-78
2023/12/24 00:59:36;;;;;;;11.13;4.33;;;;;;;1.23;63.35;98960.75;125092;1099;104274;-77
2023/12/24 01:02:07;;;;;;;8.40;3.60;;;;;;;1.25;63.53;98954.85;125716;1099;102538;-78
2023/12/24 01:04:38;;;;;;;9.20;4.10;;;;;;;1.28;63.71;98956.70;125620;1099;104635;-77
2023/12/24 01:07:10;;;;;;;8.93;3.93;;;;;;;1.32;63.71;98956.02;125635;1098;102325;-78
2023/12/24 01:09:41;;;;;;;11.27;4.07;;;;;;;1.35;63.55;98960.45;125682;1099;102553;-78
2023/12/24 01:12:13;;;;;;;11.63;3.87;;;;;;;1.35;63.55;98966.50;125618;1099;102038;-78
2023/12/24 01:14:44;;;;;;;8.27;3.70;;;;;;;1.35;63.01;98953.58;125637;1098;104198;-77
2023/12/24 01:17:17;;;;;;;7.40;3.30;;;;;;;1.32;63.21;98956.02;125477;1098;101986;-77
2023/12/24 01:19:48;;;;;;;10.40;4.27;;;;;;;1.29;63.42;98973.09;125696;1099;104211;-78
2023/12/24 01:22:19;;;;;;;8.90;3.80;;;;;;;1.27;62.98;98966.97;125393;1099;104268;-77
2023/12/24 01:24:51;;;;;;;11.73;4.30;;;;;;;1.28;63.27;98979.05;125481;1099;103336;-77
2023/12/24 01:27:23;;;;;;;10.27;4.23;;;;;;;1.28;63.08;98994.56;125573;1099;104357;-77
2023/12/24 01:29:55;;;;;;;9.20;3.60;;;;;;;1.28;63.28;98994.56;125402;1099;104163;-77
2023/12/24 01:32:26;;;;;;;9.27;3.80;;;;;;;1.32;63.37;98989.62;125713;1098;104169;-78
2023/12/24 01:34:58;;;;;;;11.23;4.20;;;;;;;1.33;62.99;98996.56;125697;1099;101931;-78
2023/12/24 01:37:29;;;;;;;11.53;4.23;;;;;;;1.35;63.10;99002.69;125542;1099;102210;-78
2023/12/24 01:40:01;;;;;;;11.47;3.90;;;;;;;1.33;63.33;98999.16;125386;1099;101992;-78
2023/12/24 01:42:32;;;;;;;8.53;3.77;;;;;;;1.31;63.39;99005.95;125412;1099;101912;-78
2023/12/24 01:45:04;;;;;;;9.50;3.50;;;;;;;1.28;62.73;99004.90;125273;1098;104204;-79
2023/12/24 01:47:35;;;;;;;8.90;3.50;;;;;;;1.27;62.45;99001.44;125110;1099;101883;-78
2023/12/24 01:50:08;;;;;;;8.43;3.30;;;;;;;1.29;62.68;99009.27;125184;1099;104281;-79
2023/12/24 01:52:41;;;;;;;8.27;3.13;;;;;;;1.32;62.22;99014.58;125090;1099;101912;-77
2023/12/24 01:55:13;;;;;;;8.50;3.00;;;;;;;1.37;62.46;99032.10;125121;1099;104060;-78
2023/12/24 01:57:44;;;;;;;8.57;3.00;;;;;;;1.39;62.48;99058.90;125123;1099;101916;-78
2023/12/24 02:00:19;;;;;;;6.60;3.23;;;;;;;1.41;62.48;99083.11;124749;1099;104262;-77
2023/12/24 02:02:51;;;;;;;7.07;2.60;;;;;;;1.36;62.90;99061.33;125124;1099;104283;-78
2023/12/24 02:05:23;;;;;;;9.13;3.00;;;;;;;1.29;64.24;99059.25;124694;1099;104358;-78
2023/12/24 02:07:56;;;;;;;6.63;3.00;;;;;;;1.22;63.73;99070.11;124656;1099;104216;-78
2023/12/24 02:10:27;;;;;;;7.77;3.00;;;;;;;1.17;63.35;99072.47;124903;1099;104265;-78
2023/12/24 02:12:59;;;;;;;6.60;2.67;;;;;;;1.10;64.01;99066.91;124977;1099;104220;-78
2023/12/24 02:15:30;;;;;;;8.23;3.07;;;;;;;1.05;63.86;99064.97;125250;1099;101829;-79
2023/12/24 02:18:02;;;;;;;7.00;2.97;;;;;;;1.02;63.82;99067.40;125226;1098;104197;-79
2023/12/24 02:20:33;;;;;;;8.17;3.00;;;;;;;1.02;64.18;99066.52;124648;1097;104249;-78
2023/12/24 02:23:05;;;;;;;7.63;3.07;;;;;;;1.00;63.90;99076.78;125343;1099;102572;-78
2023/12/24 02:25:36;;;;;;;8.03;3.10;;;;;;;0.98;63.88;99074.91;125248;1099;104786;-78
2023/12/24 02:28:15;;;;;;;9.27;2.97;;;;;;;0.97;63.71;99081.79;124788;1099;104221;-78
2023/12/24 02:30:51;;;;;;;7.13;2.80;;;;;;;0.98;64.02;99080.08;125268;1098;104211;-79
2023/12/24 02:33:24;;;;;;;6.10;2.90;;;;;;;0.97;63.78;99089.54;125166;1099;104335;-78
2023/12/24 02:35:59;;;;;;;8.83;2.80;;;;;;;0.97;63.89;99074.04;125256;1099;101797;-79
2023/12/24 02:38:30;;;;;;;5.63;2.90;;;;;;;0.99;63.77;99080.16;125195;1099;102270;-78
2023/12/24 02:41:01;;;;;;;6.63;2.97;;;;;;;1.00;63.97;99081.95;124914;1099;104143;-78
2023/12/24 02:43:34;;;;;;;6.10;2.40;;;;;;;1.02;63.92;99082.90;125395;1099;102105;-79
2023/12/24 02:46:06;;;;;;;4.33;2.50;;;;;;;1.03;63.54;99088.97;125197;1099;104173;-78
2023/12/24 02:48:37;;;;;;;6.23;2.50;;;;;;;1.05;63.56;99090.80;125454;1099;101875;-78
2023/12/24 02:51:08;;;;;;;5.63;2.63;;;;;;;1.06;63.44;99092.59;125088;1099;102369;-78
2023/12/24 02:53:40;;;;;;;4.40;2.60;;;;;;;1.09;63.75;99091.84;125399;1099;104178;-79
2023/12/24 02:56:11;;;;;;;6.93;2.70;;;;;;;1.10;63.80;99096.20;125669;1099;104264;-78
2023/12/24 02:58:43;;;;;;;6.30;2.33;;;;;;;1.14;63.88;99104.98;125481;1099;104281;-78
2023/12/24 03:01:15;;;;;;;5.57;2.77;;;;;;;1.13;63.60;99100.66;125017;1099;104307;-78
2023/12/24 03:03:46;;;;;;;4.67;2.37;;;;;;;1.13;63.66;99108.41;125464;1098;104217;-78
2023/12/24 03:06:17;;;;;;;5.60;2.50;;;;;;;1.11;63.34;99121.24;124822;1099;102316;-78
2023/12/24 03:08:49;;;;;;;7.73;3.17;;;;;;;1.13;63.15;99116.16;124664;1099;102307;-78
2023/12/24 03:11:20;;;;;;;6.03;2.57;;;;;;;1.12;63.38;99116.95;125181;1099;104156;-79
2023/12/24 03:13:51;;;;;;;7.90;3.00;;;;;;;1.11;63.68;99131.58;125189;1099;102402;-77
2023/12/24 03:16:23;;;;;;;7.97;3.03;;;;;;;1.11;62.93;99123.83;125065;1099;104261;-78
2023/12/24 03:18:54;;;;;;;8.53;2.57;;;;;;;1.12;63.08;99127.28;125203;1098;104233;-78
2023/12/24 03:21:26;;;;;;;5.67;2.50;;;;;;;1.12;63.01;99128.16;125024;1099;104229;-78
2023/12/24 03:23:57;;;;;;;7.40;2.70;;;;;;;1.16;62.90;99134.40;124817;1099;102502;-77
2023/12/24 03:26:29;;;;;;;7.33;2.70;;;;;;;1.18;62.84;99127.60;124621;1099;102113;-78
2023/12/24 03:29:00;;;;;;;5.97;2.40;;;;;;;1.19;63.34;99135.43;124660;1099;104169;-79
2023/12/24 03:31:31;;;;;;;7.20;2.65;;;;;;;1.22;63.33;99138.17;125263;1099;101839;-79
2023/12/24 03:34:03;;;;;;;6.10;2.40;;;;;;;1.24;63.46;99143.42;125245;1099;104233;-79
2023/12/24 03:36:34;;;;;;;5.40;2.50;;;;;;;1.28;63.38;99141.86;125131;1099;104251;-78
2023/12/24 03:39:08;;;;;;;7.03;2.63;;;;;;;1.30;63.08;99150.61;124820;1099;102025;-78
2023/12/24 03:41:40;;;;;;;5.30;2.25;;;;;;;1.32;63.43;99147.27;125069;1099;104214;-77
2023/12/24 03:44:12;;;;;;;5.70;2.90;;;;;;;1.32;63.05;99143.81;125034;1099;101846;-79
2023/12/24 03:46:43;;;;;;;8.07;2.60;;;;;;;1.30;63.47;99143.73;125103;1099;104176;-79
2023/12/24 03:49:14;;;;;;;7.50;2.60;;;;;;;1.27;63.29;99155.63;124624;1099;104384;-78
2023/12/24 03:51:47;;;;;;;5.47;2.30;;;;;;;1.23;63.23;99149.38;125152;1099;104166;-79
2023/12/24 03:54:21;;;;;;;5.27;2.50;;;;;;;1.20;63.05;99154.39;125120;1099;104121;-79
2023/12/24 03:56:51;;;;;;;;;;;;;;;1.16;63.21;99153.36;125325;1099;104280;-79
2023/12/24 03:59:22;;;;;;;8.10;2.80;;;;;;;1.15;63.07;99161.03;125225;1098;104708;-79
2023/12/24 04:01:53;;;;;;;5.17;2.40;;;;;;;1.14;63.55;99167.00;125148;1099;104270;-79
2023/12/24 04:04:24;;;;;;;6.07;2.70;;;;;;;1.11;63.28;99160.00;125141;1099;104268;-79
2023/12/24 04:06:56;;;;;;;10.30;2.83;;;;;;;1.10;63.46;99165.09;124639;1099;104281;-79
2023/12/24 04:09:29;;;;;;;4.83;2.60;;;;;;;1.11;63.05;99166.84;125269;1099;104175;-78
2023/12/24 04:12:01;;;;;;;6.45;2.80;;;;;;;1.10;63.39;99168.55;125204;1099;102119;-78
2023/12/24 04:14:33;;;;;;;7.20;2.97;;;;;;;1.10;63.48;99180.59;125371;1099;104176;-78
2023/12/24 04:17:05;;;;;;;7.83;2.53;;;;;;;1.07;63.33;99189.05;124944;1099;104076;-78
2023/12/24 04:19:37;;;;;;;6.23;2.50;;;;;;;1.07;63.43;99189.05;125349;1099;104208;-78
2023/12/24 04:22:08;;;;;;;4.33;2.37;;;;;;;1.09;63.54;99197.77;125238;1099;102221;-78
2023/12/24 04:24:40;;;;;;;6.00;2.50;;;;;;;1.11;63.38;99201.34;125514;1098;104185;-77
2023/12/24 04:27:13;;;;;;;3.93;2.33;;;;;;;1.14;63.95;99208.34;124997;1099;102322;-77
2023/12/24 04:29:44;;;;;;;4.63;2.37;;;;;;;1.15;63.51;99210.13;125712;1098;104178;-79
2023/12/24 04:32:16;;;;;;;6.20;2.27;;;;;;;1.11;63.13;99209.09;124976;1099;102391;-78
2023/12/24 04:34:48;;;;;;;5.33;2.53;;;;;;;1.10;63.04;99221.92;124986;1099;104331;-78
2023/12/24 04:37:19;;;;;;;3.57;2.00;;;;;;;1.12;63.35;99216.01;125500;1099;104297;-78
2023/12/24 04:39:51;;;;;;;4.87;2.10;;;;;;;1.14;63.55;99219.59;124880;1099;104353;-78
2023/12/24 04:42:22;;;;;;;7.10;2.23;;;;;;;1.16;63.43;99230.00;125334;1099;104207;-79
2023/12/24 04:44:53;;;;;;;3.37;1.93;;;;;;;1.17;62.83;99236.92;124940;1099;104214;-79
2023/12/24 04:47:25;;;;;;;4.17;2.07;;;;;;;1.18;63.08;99237.00;124861;1099;101972;-79
2023/12/24 04:49:56;;;;;;;3.07;1.93;;;;;;;1.19;63.09;99243.08;125488;1099;102021;-78
2023/12/24 04:52:28;;;;;;;3.77;2.10;;;;;;;1.18;62.78;99249.05;125437;1098;102088;-79
2023/12/24 04:54:59;;;;;;;4.33;2.20;;;;;;;1.16;63.11;99258.42;125401;1099;104173;-79
2023/12/24 04:57:30;;;;;;;8.87;2.30;;;;;;;1.15;62.99;99260.09;124905;1099;104185;-79
2023/12/24 05:00:02;;;;;;;3.53;2.13;;;;;;;1.14;62.77;99270.35;125314;1099;104188;-79
2023/12/24 05:02:34;;;;;;;4.60;2.40;;;;;;;1.13;63.03;99268.59;124834;1103;102279;-79
2023/12/24 05:05:06;;;;;;;3.83;2.07;;;;;;;1.12;63.04;99266.81;124732;1099;102074;-79
2023/12/24 05:07:38;;;;;;;5.57;2.40;;;;;;;1.11;62.85;99276.27;125223;1099;104232;-79
2023/12/24 05:10:11;;;;;;;7.17;2.53;;;;;;;1.07;62.56;99272.61;125294;1099;104197;-79
2023/12/24 05:12:42;;;;;;;5.93;2.47;;;;;;;1.04;63.09;99275.05;124861;1099;104195;-79
2023/12/24 05:15:13;;;;;;;4.77;2.73;;;;;;;1.01;62.70;99280.06;124835;1097;101965;-78
2023/12/24 05:17:45;;;;;;;7.53;2.90;;;;;;;0.98;62.65;99273.81;124810;1099;104179;-80
2023/12/24 05:20:19;;;;;;;5.10;2.50;;;;;;;0.95;62.73;99282.31;124793;1100;104217;-79
2023/12/24 05:22:50;;;;;;;6.53;2.90;;;;;;;0.93;62.63;99276.15;125432;1099;104205;-79
2023/12/24 05:25:22;;;;;;;6.73;3.03;;;;;;;0.94;62.90;99280.52;125457;1099;101823;-78
2023/12/24 05:27:53;;;;;;;11.53;2.57;;;;;;;0.98;63.13;99287.64;125688;1099;104399;-79
2023/12/24 05:30:25;;;;;;;7.63;2.70;;;;;;;0.99;62.65;99289.39;125499;1099;104040;-78
2023/12/24 05:32:56;;;;;;;4.23;2.30;;;;;;;0.99;62.88;99296.27;125399;1098;102721;-78
2023/12/24 05:35:27;;;;;;;7.67;3.10;;;;;;;0.94;62.96;99293.44;125466;1099;102342;-79
2023/12/24 05:37:58;;;;;;;6.50;2.90;;;;;;;0.89;62.85;99295.77;125263;1099;104628;-78
2023/12/24 05:40:30;;;;;;;6.40;3.07;;;;;;;0.87;62.80;99306.81;125428;1099;104792;-79
2023/12/24 05:43:01;;;;;;;7.80;2.87;;;;;;;0.86;62.76;99312.80;124902;1099;104254;-78
2023/12/24 05:45:35;;;;;;;7.23;2.77;;;;;;;0.82;62.75;99316.00;125397;1099;104061;-78
2023/12/24 05:48:07;;;;;;;6.58;2.85;;;;;;;0.79;62.98;99331.33;125477;1098;102061;-79
2023/12/24 05:50:40;;;;;;;7.83;2.93;;;;;;;0.75;62.92;99337.11;124933;1099;102042;-78
2023/12/24 05:53:11;;;;;;;7.00;3.30;;;;;;;0.67;62.95;99344.43;124820;1099;101951;-78
2023/12/24 05:55:42;;;;;;;7.50;3.27;;;;;;;0.64;63.10;99350.33;125434;1099;104178;-78
2023/12/24 05:58:14;;;;;;;7.25;3.10;;;;;;;0.65;63.13;99349.51;125004;1099;102050;-78
2023/12/24 06:00:45;;;;;;;9.90;3.27;;;;;;;0.68;63.11;99352.27;125472;1099;104166;-79
2023/12/24 06:03:16;;;;;;;7.47;2.80;;;;;;;0.73;63.09;99361.97;125488;1099;102032;-78
2023/12/24 06:05:48;;;;;;;7.83;3.60;;;;;;;0.78;62.93;99360.53;125483;1099;101913;-78
2023/12/24 06:08:19;;;;;;;9.33;3.57;;;;;;;0.82;63.46;99357.33;125400;1099;104221;-78
2023/12/24 06:10:50;;;;;;;9.37;3.53;;;;;;;0.85;63.36;99357.50;125468;1099;104249;-78
2023/12/24 06:13:21;;;;;;;6.85;3.30;;;;;;;0.89;63.22;99368.09;125625;1099;104179;-78
2023/12/24 06:15:53;;;;;;;6.30;3.10;;;;;;;0.88;63.19;99371.46;125429;1099;104239;-79
2023/12/24 06:18:24;;;;;;;8.43;3.43;;;;;;;0.89;62.85;99377.54;125448;1098;104185;-78
2023/12/24 06:20:55;;;;;;;7.53;3.33;;;;;;;0.94;63.45;99376.09;125393;1099;104194;-78
2023/12/24 06:23:26;;;;;;;7.33;3.87;;;;;;;1.00;63.47;99384.19;125542;1099;101833;-78
2023/12/24 06:25:58;;;;;;;11.07;3.43;;;;;;;1.04;63.20;99393.90;125252;1098;101858;-78
2023/12/24 06:28:29;;;;;;;6.37;3.00;;;;;;;1.13;63.20;99387.45;124847;1099;104270;-79
2023/12/24 06:31:00;;;;;;;9.60;3.77;;;;;;;1.22;63.89;99398.30;125734;1099;102064;-78
2023/12/24 06:33:32;;;;;;;10.67;4.60;;;;;;;1.30;63.13;99390.97;125592;1099;101920;-78
2023/12/24 06:36:03;;;;;;;12.70;4.50;;;;;;;1.37;63.05;99393.05;125355;1098;104163;-78
2023/12/24 06:38:34;;;;;;;11.70;4.17;;;;;;;1.42;63.52;99392.52;125543;1098;104172;-79
2023/12/24 06:41:06;;;;;;;7.97;3.57;;;;;;;1.51;63.37;99401.56;125641;1099;104194;-78
2023/12/24 06:43:37;;;;;;;11.47;4.00;;;;;;;1.59;63.33;99410.61;125680;1099;101945;-78
2023/12/24 06:46:11;;;;;;;19.50;6.07;;;;;;;1.64;63.24;99409.19;125603;1098;104187;-79
2023/12/24 06:48:43;;;;;;;19.77;6.23;;;;;;;1.73;63.33;99408.77;125662;1099;104227;-78
2023/12/24 06:51:14;;;;;;;21.13;6.83;;;;;;;1.82;63.30;99403.20;125599;1099;102029;-78
2023/12/24 06:53:46;;;;;;;19.07;7.30;;;;;;;1.92;63.46;99416.70;125535;1099;104245;-78
2023/12/24 06:56:17;;;;;;;17.27;5.30;;;;;;;2.01;62.94;99410.23;125068;1099;104249;-78
2023/12/24 06:58:48;;;;;;;15.50;5.23;;;;;;;2.03;63.02;99413.80;125604;1099;104345;-79
2023/12/24 07:01:19;;;;;;;12.07;4.93;;;;;;;2.09;63.51;99414.13;125490;1099;104194;-78
2023/12/24 07:03:51;;;;;;;12.00;4.93;;;;;;;2.18;62.98;99416.28;125758;1099;101966;-78
2023/12/24 07:06:22;;;;;;;12.30;3.90;;;;;;;2.32;63.25;99417.87;125830;1099;101891;-78
2023/12/24 07:08:53;;;;;;;9.17;3.20;;;;;;;2.48;63.06;99424.73;125752;1099;101922;-78
2023/12/24 07:11:24;;;;;;;7.97;3.37;;;;;;;2.61;62.73;99421.94;125642;1099;101997;-78
2023/12/24 07:13:56;;;;;;;7.20;3.40;;;;;;;2.75;63.53;99422.63;125812;1099;102188;-78
2023/12/24 07:16:27;;;;;;;6.50;2.87;;;;;;;2.78;62.70;99417.59;125349;1099;104223;-77
2023/12/24 07:18:58;;;;;;;11.17;2.83;;;;;;;2.80;62.85;99421.14;125786;1099;104169;-78
2023/12/24 07:21:30;;;;;;;4.17;2.63;;;;;;;2.81;62.79;99422.05;125063;1099;104172;-78
2023/12/24 07:24:01;;;;;;;7.17;2.70;;;;;;;2.82;62.58;99432.48;124989;1101;104260;-78
2023/12/24 07:26:32;;;;;;;6.87;2.60;;;;;;;2.83;62.99;99425.59;125647;1099;102189;-78
2023/12/24 07:29:04;;;;;;;5.27;2.30;;;;;;;2.91;62.43;99429.44;125020;1099;104239;-78
2023/12/24 07:31:35;;;;;;;7.07;2.50;;;;;;;2.97;61.91;99439.23;125612;1098;104169;-78
2023/12/24 07:34:06;;;;;;;6.27;2.50;;;;;;;2.99;62.20;99443.69;125540;1099;101909;-78
2023/12/24 07:36:37;;;;;;;5.43;2.17;;;;;;;2.97;62.04;99440.11;125200;1099;104191;-78
2023/12/24 07:39:10;;;;;;;4.70;2.50;;;;;;;2.97;62.09;99445.29;125248;1099;104204;-77
2023/12/24 07:41:43;;;;;;;5.87;2.90;;;;;;;3.00;62.66;99440.25;125443;1098;104274;-78
2023/12/24 07:44:17;;;;;;;7.00;2.55;;;;;;;3.04;61.47;99446.50;124956;1099;101833;-77
2023/12/24 07:46:48;;;;;;;5.23;2.47;;;;;;;3.03;61.36;99445.59;125372;1099;104242;-78
2023/12/24 07:49:19;;;;;;;7.53;2.97;;;;;;;3.05;61.76;99443.07;125537;1099;104066;-77
2023/12/24 07:51:51;;;;;;;5.60;2.43;;;;;;;3.07;61.16;99454.42;124882;1099;101926;-77
2023/12/24 07:54:22;;;;;;;9.93;2.87;;;;;;;3.09;62.04;99454.50;125322;1098;104169;-78
2023/12/24 07:56:53;;;;;;;8.73;3.00;;;;;;;3.12;61.27;99460.72;125382;1098;104243;-77
2023/12/24 07:59:24;;;;;;;6.40;3.10;;;;;;;3.14;61.50;99469.44;125606;1099;104438;-78
2023/12/24 08:01:56;;;;;;;10.77;3.07;;;;;;;3.18;61.32;99475.66;125675;1098;104021;-78
2023/12/24 08:04:27;;;;;;;9.10;3.30;;;;;;;3.23;61.61;99475.08;125029;1102;101935;-78
2023/12/24 08:06:58;;;;;;;13.77;4.67;;;;;;;3.29;61.46;99473.58;125259;1099;101794;-78
2023/12/24 08:09:30;;;;;;;12.87;4.43;;;;;;;3.33;60.88;99483.30;125639;1099;101929;-77
2023/12/24 08:12:01;;;;;;;10.77;4.00;;;;;;;3.34;59.48;99479.91;125072;1099;104326;-78
2023/12/24 08:14:32;;;;;;;11.80;4.07;;;;;;;3.36;60.46;99483.45;125441;1098;102411;-78
2023/12/24 08:17:03;;;;;;;13.53;4.37;;;;;;;3.40;60.62;99494.05;125237;1099;104271;-78
2023/12/24 08:19:35;;;;;;;10.00;4.00;;;;;;;3.41;60.69;99493.23;125576;1098;103036;-78
2023/12/24 08:22:06;;;;;;;15.30;4.80;;;;;;;3.44;60.74;99497.66;125742;1099;102046;-78
2023/12/24 08:24:38;;;;;;;13.67;4.47;;;;;;;3.46;60.52;99503.84;125162;1098;102491;-78
2023/12/24 08:27:09;;;;;;;10.17;3.73;;;;;;;3.45;60.07;99504.64;125490;1099;101884;-79
2023/12/24 08:29:41;;;;;;;10.03;3.97;;;;;;;3.49;60.20;99509.17;125657;1099;102554;-77
2023/12/24 08:32:12;;;;;;;11.30;3.83;;;;;;;3.56;60.79;99495.66;125639;1099;101916;-78
2023/12/24 08:34:43;;;;;;;14.23;4.47;;;;;;;3.67;60.31;99510.85;125806;1099;102185;-78
2023/12/24 08:37:15;;;;;;;10.90;4.00;;;;;;;3.72;60.14;99502.45;125643;1099;104142;-78
2023/12/24 08:39:46;;;;;;;11.35;3.80;;;;;;;3.77;59.66;99503.58;125643;1099;101932;-78
2023/12/24 08:42:17;;;;;;;7.07;2.80;;;;;;;3.82;59.21;99496.00;125688;1099;102070;-79
2023/12/24 08:44:49;;;;;;;5.77;2.73;;;;;;;3.84;58.69;99488.29;125464;1099;104166;-79
2023/12/24 08:47:20;;;;;;;7.07;2.70;;;;;;;3.83;59.04;99487.38;125433;1099;102632;-79
2023/12/24 08:49:51;;;;;;;7.87;2.30;;;;;;;3.86;58.07;99486.64;125655;1099;102680;-78
2023/12/24 08:52:23;;;;;;;3.40;2.40;;;;;;;3.94;58.35;99500.85;124876;1099;104178;-79
2023/12/24 08:54:54;;;;;;;8.73;2.10;;;;;;;4.13;58.67;99497.42;125471;1099;104268;-78
2023/12/24 08:57:25;;;;;;;5.03;1.97;;;;;;;4.27;56.03;99493.72;124864;1099;104188;-78
2023/12/24 08:59:56;;;;;;;4.73;2.10;;;;;;;4.39;57.38;99495.95;125573;1099;101833;-78
2023/12/24 09:02:28;;;;;;;6.87;2.23;;;;;;;4.47;56.33;99491.09;125312;1099;104223;-79
2023/12/24 09:04:59;;;;;;;5.43;2.67;;;;;;;4.57;56.99;99487.22;125513;1099;104166;-79
2023/12/24 09:07:31;;;;;;;7.53;2.43;;;;;;;4.70;57.72;99483.42;125486;1099;102603;-79
2023/12/24 09:10:02;;;;;;;7.40;2.80;;;;;;;4.80;56.96;99488.17;125172;1099;101816;-79
2023/12/24 09:12:34;;;;;;;7.40;2.47;;;;;;;4.89;57.21;99483.36;125185;1099;101839;-79
2023/12/24 09:15:06;;;;;;;6.80;2.15;;;;;;;4.99;54.63;99493.34;125345;1099;104178;-79
2023/12/24 09:17:37;;;;;;;6.70;2.30;;;;;;;5.07;56.71;99475.45;124791;1099;104281;-79
2023/12/24 09:20:10;;;;;;;5.57;2.10;;;;;;;5.18;56.03;99481.09;125430;1099;101829;-79
2023/12/24 09:22:41;;;;;;;8.07;2.50;;;;;;;5.31;56.77;99477.27;125778;1099;104172;-79
2023/12/24 09:25:13;;;;;;;9.10;2.73;;;;;;;5.51;57.19;99470.27;125689;1099;104198;-78
2023/12/24 09:27:45;;;;;;;9.03;3.03;;;;;;;5.69;56.56;99462.30;125426;1099;102452;-78
2023/12/24 09:30:16;;;;;;;9.07;3.10;;;;;;;5.83;56.28;99462.80;125429;1098;101814;-78
2023/12/24 09:32:47;;;;;;;5.20;2.60;;;;;;;5.85;56.43;99458.56;124940;1099;102077;-78
2023/12/24 09:35:20;;;;;;;5.45;2.85;;;;;;;5.87;56.19;99462.09;125395;1099;104179;-78
2023/12/24 09:37:51;;;;;;;6.57;2.70;;;;;;;5.83;56.07;99458.50;125393;1099;102954;-77
2023/12/24 09:40:22;;;;;;;8.10;3.00;;;;;;;5.80;56.16;99463.59;125117;1099;102407;-78
2023/12/24 09:42:54;;;;;;;5.43;2.80;;;;;;;5.80;56.15;99462.68;125693;1099;102381;-78
2023/12/24 09:45:25;;;;;;;8.90;3.10;;;;;;;5.82;56.01;99466.25;125687;1098;102044;-78
2023/12/24 09:47:57;;;;;;;8.80;3.23;;;;;;;5.82;55.69;99471.45;125523;1099;104175;-77
2023/12/24 09:50:28;;;;;;;7.20;2.77;;;;;;;5.81;56.43;99470.55;125806;1099;104229;-78
2023/12/24 09:52:59;;;;;;;9.50;3.57;;;;;;;5.82;55.89;99472.34;125666;1099;104326;-78
2023/12/24 09:55:31;;;;;;;8.80;3.20;;;;;;;5.80;56.07;99465.28;124876;1098;104313;-78
2023/12/24 09:58:02;;;;;;;8.77;3.40;;;;;;;5.80;56.18;99473.09;125809;1099;104063;-78
2023/12/24 10:00:33;;;;;;;7.60;3.40;;;;;;;5.76;56.04;99467.80;125534;1099;110793;-78
2023/12/24 10:03:05;;;;;;;8.73;2.90;;;;;;;5.75;56.15;99473.83;125800;1099;102016;-78
2023/12/24 10:05:58;;;;;;;11.47;3.70;;;;;;;5.78;55.61;99469.55;125661;1099;102157;-77
2023/12/24 10:08:29;;;;;;;9.63;3.40;;;;;;;5.78;55.08;99472.16;125455;1098;102763;-79
2023/12/24 10:11:15;;;;;;;6.90;3.00;;;;;;;5.69;55.63;99467.51;125601;1099;102178;-78
2023/12/24 10:13:46;;;;;;;8.77;3.10;;;;;;;5.71;54.91;99474.52;125604;1099;104268;-79
2023/12/24 10:16:18;;;;;;;10.10;3.70;;;;;;;5.81;55.20;99473.16;125635;1099;102359;-78
2023/12/24 10:18:53;;;;;;;9.67;3.20;;;;;;;5.84;54.36;99469.79;125567;1099;101918;-79
2023/12/24 10:21:25;;;;;;;5.50;2.57;;;;;;;5.78;53.29;99473.06;125196;1099;102000;-80
2023/12/24 10:24:04;;;;;;;5.57;2.40;;;;;;;5.67;52.97;99475.25;125359;1099;104197;-78
2023/12/24 10:26:36;;;;;;;4.50;2.40;;;;;;;5.68;51.38;99471.80;125308;1099;104307;-78
2023/12/24 10:29:07;;;;;;;3.33;2.03;;;;;;;5.69;50.72;99468.38;125301;1098;102442;-78
2023/12/24 10:31:50;;;;;;;4.10;2.20;;;;;;;5.61;50.13;99474.11;125359;1098;104211;-79
2023/12/24 10:34:21;;;;;;;5.13;2.20;;;;;;;5.51;49.56;99476.34;125121;1099;101801;-79
2023/12/24 10:36:52;;;;;;;4.37;2.00;;;;;;;5.46;51.49;99480.48;125142;1099;101928;-78
2023/12/24 10:39:26;;;;;;;4.77;2.23;;;;;;;5.45;50.74;99490.84;125287;1099;102385;-78
2023/12/24 10:41:58;;;;;;;4.90;2.40;;;;;;;5.46;51.44;99493.50;125331;1098;102057;-78
2023/12/24 10:44:29;;;;;;;6.97;2.23;;;;;;;5.42;51.09;99496.80;125273;1099;104200;-78
2023/12/24 10:47:00;;;;;;;5.90;2.70;;;;;;;5.37;51.31;99499.20;125253;1099;104360;-79
2023/12/24 10:49:31;;;;;;;6.83;2.37;;;;;;;5.34;51.50;99487.80;124806;1099;104259;-79
2023/12/24 10:52:03;;;;;;;7.93;3.00;;;;;;;5.35;51.17;99495.67;124963;1099;104182;-79
2023/12/24 10:54:36;;;;;;;7.33;2.87;;;;;;;5.33;52.13;99501.62;124754;1099;101871;-78
2023/12/24 10:57:28;;;;;;;5.50;2.97;;;;;;;5.27;51.80;99491.00;125043;1099;104383;-78
2023/12/24 11:00:12;;;;;;;7.00;2.47;;;;;;;5.20;51.05;99513.25;125017;1099;104261;-79
2023/12/24 11:02:49;;;;;;;3.15;2.10;;;;;;;5.13;50.86;99509.52;124775;1099;104172;-79
2023/12/24 11:05:50;;;;;;;4.43;2.60;;;;;;;5.11;51.69;99511.17;124986;1099;101863;-79
2023/12/24 11:08:34;;;;;;;3.30;2.10;;;;;;;5.08;50.68;99525.73;125121;1099;101836;-78
2023/12/24 11:11:07;;;;;;;5.10;2.70;;;;;;;5.06;51.39;99519.59;125457;1099;104201;-79
2023/12/24 11:13:51;;;;;;;5.17;2.37;;;;;;;5.08;51.12;99530.94;125453;1099;102283;-79
2023/12/24 11:16:43;;;;;;;5.77;2.10;;;;;;;5.11;49.67;99531.06;125317;1099;104261;-79
2023/12/24 11:19:26;;;;;;;5.70;1.87;;;;;;;5.15;50.74;99528.66;125282;1099;101833;-79
2023/12/24 11:22:11;;;;;;;3.00;1.60;;;;;;;5.21;49.17;99521.11;125205;1098;104290;-78
2023/12/24 11:24:43;;;;;;;7.13;2.20;;;;;;;5.23;50.46;99521.18;125158;1099;104201;-79
2023/12/24 11:27:15;;;;;;;5.30;2.30;;;;;;;5.27;50.72;99520.48;124824;1099;104245;-78
2023/12/24 11:29:50;;;;;;;5.97;2.30;;;;;;;5.33;49.57;99523.34;125265;1099;104172;-78
2023/12/24 11:32:44;;;;;;;8.43;2.47;;;;;;;5.36;50.85;99523.47;125168;1099;110775;-77
2023/12/24 11:35:55;;;;;;;6.07;2.57;;;;;;;5.41;49.18;99523.66;124777;1099;102048;-79
2023/12/24 11:38:42;;;;;;;5.07;2.63;;;;;;;5.39;50.08;99528.80;125291;1099;102076;-79
2023/12/24 11:41:15;;;;;;;3.55;2.15;;;;;;;5.35;49.27;99524.28;125424;1099;104402;-78
2023/12/24 11:43:54;;;;;;;6.10;2.40;;;;;;;5.29;49.24;99523.16;125284;1099;104162;-80
2023/12/24 11:46:27;;;;;;;6.80;2.50;;;;;;;5.23;50.36;99515.97;125271;1098;101878;-79
2023/12/24 11:49:06;;;;;;;5.43;2.03;;;;;;;5.25;50.14;99516.95;125242;1099;104198;-78